createdAt,value
2023-12-17T00:02:13.115Z,1.00
2023-12-17T00:04:57.986Z,0.88
2023-12-17T00:07:43.010Z,0.91
2023-12-17T00:10:27.878Z,0.96
2023-12-17T00:13:13.056Z,0.72
2023-12-17T00:15:57.835Z,0.56
2023-12-17T00:18:42.883Z,0.47
2023-12-17T00:21:27.989Z,0.51
2023-12-17T00:24:12.951Z,0.55
2023-12-17T00:26:57.922Z,0.42
2023-12-17T00:29:42.958Z,0.53
2023-12-17T00:32:27.926Z,0.68
2023-12-17T00:35:12.894Z,0.67
2023-12-17T00:37:57.834Z,0.58
2023-12-17T00:40:42.748Z,1.04
2023-12-17T00:43:27.806Z,1.22
2023-12-17T00:46:12.797Z,0.99
2023-12-17T00:48:57.846Z,0.97
2023-12-17T00:51:42.816Z,0.93
2023-12-17T00:54:27.633Z,0.80
2023-12-17T00:57:12.636Z,0.77
2023-12-17T00:59:57.555Z,0.47
2023-12-17T01:02:42.395Z,0.52
2023-12-17T01:05:27.450Z,0.75
2023-12-17T01:08:12.246Z,0.68
2023-12-17T01:10:57.308Z,0.62
2023-12-17T01:13:42.195Z,0.85
2023-12-17T01:16:27.109Z,0.89
2023-12-17T01:19:12.133Z,1.16
2023-12-17T01:21:57.143Z,1.04
2023-12-17T01:24:42.025Z,0.76
2023-12-17T01:27:27.036Z,0.89
2023-12-17T01:30:12.206Z,0.80
2023-12-17T01:32:57.118Z,0.80
2023-12-17T01:35:42.092Z,0.99
2023-12-17T01:38:27.017Z,0.71
2023-12-17T01:41:11.947Z,0.89
2023-12-17T01:43:56.865Z,1.08
2023-12-17T01:46:41.851Z,1.10
2023-12-17T01:49:26.847Z,0.96
2023-12-17T01:52:11.648Z,1.05
2023-12-17T01:54:56.643Z,0.85
2023-12-17T01:57:41.812Z,0.57
2023-12-17T02:00:26.746Z,0.70
2023-12-17T02:03:11.648Z,0.96
2023-12-17T02:05:56.720Z,1.12
2023-12-17T02:08:41.649Z,1.05
2023-12-17T02:11:26.714Z,0.94
2023-12-17T02:14:11.692Z,0.95
2023-12-17T02:16:56.652Z,1.00
2023-12-17T02:19:41.830Z,0.96
2023-12-17T02:22:26.693Z,1.00
2023-12-17T02:25:11.755Z,0.77
2023-12-17T02:27:56.666Z,0.97
2023-12-17T02:30:41.638Z,0.56
2023-12-17T02:33:26.872Z,0.45
2023-12-17T02:36:12.033Z,0.69
2023-12-17T02:38:56.944Z,1.06
2023-12-17T02:41:41.863Z,0.93
2023-12-17T02:44:26.969Z,0.92
2023-12-17T02:47:11.954Z,0.92
2023-12-17T02:49:57.126Z,1.23
2023-12-17T02:52:41.897Z,1.14
2023-12-17T02:55:26.784Z,0.78
2023-12-17T02:58:11.887Z,0.84
2023-12-17T03:00:56.956Z,1.27
2023-12-17T03:03:41.984Z,1.50
2023-12-17T03:06:26.924Z,1.35
2023-12-17T03:09:11.906Z,1.21
2023-12-17T03:11:56.896Z,1.11
2023-12-17T03:14:41.870Z,1.51
2023-12-17T03:17:26.803Z,1.47
2023-12-17T03:20:11.664Z,1.52
2023-12-17T03:22:56.928Z,1.50
2023-12-17T03:25:41.905Z,1.27
2023-12-17T03:28:26.873Z,1.13
2023-12-17T03:31:11.785Z,1.13
2023-12-17T03:33:56.928Z,0.92
2023-12-17T03:36:41.760Z,1.09
2023-12-17T03:39:26.765Z,1.18
2023-12-17T03:42:11.815Z,1.12
2023-12-17T03:44:56.733Z,1.17
2023-12-17T03:47:41.884Z,0.98
2023-12-17T03:50:26.923Z,0.88
2023-12-17T03:53:12.185Z,0.89
2023-12-17T03:55:56.856Z,1.04
2023-12-17T03:58:41.875Z,1.07
2023-12-17T04:01:26.775Z,1.15
2023-12-17T04:04:11.795Z,1.28
2023-12-17T04:06:56.964Z,1.44
2023-12-17T04:09:41.738Z,1.34
2023-12-17T04:12:26.767Z,1.49
2023-12-17T04:15:11.901Z,1.74
2023-12-17T04:17:56.848Z,1.78
2023-12-17T04:20:41.852Z,1.71
2023-12-17T04:23:26.985Z,1.71
2023-12-17T04:26:12.052Z,1.63
2023-12-17T04:28:57.052Z,1.60
2023-12-17T04:31:41.952Z,1.63
2023-12-17T04:34:27.049Z,1.13
2023-12-17T04:37:11.923Z,1.35
2023-12-17T04:39:56.784Z,1.20
2023-12-17T04:42:41.811Z,1.07
2023-12-17T04:45:26.704Z,1.30
2023-12-17T04:48:11.723Z,0.88
2023-12-17T04:50:56.680Z,1.21
2023-12-17T04:53:41.641Z,0.91
2023-12-17T04:56:26.638Z,1.27
2023-12-17T04:59:11.549Z,1.44
2023-12-17T05:01:56.659Z,1.24
2023-12-17T05:04:41.586Z,1.28
2023-12-17T05:07:26.594Z,1.29
2023-12-17T05:10:11.403Z,1.45
2023-12-17T05:12:56.381Z,1.32
2023-12-17T05:15:41.374Z,1.41
2023-12-17T05:18:26.411Z,1.43
2023-12-17T05:21:11.403Z,1.33
2023-12-17T05:23:56.316Z,1.39
2023-12-17T05:26:41.280Z,1.28
2023-12-17T05:29:26.273Z,1.07
2023-12-17T05:32:11.379Z,1.11
2023-12-17T05:34:56.359Z,1.14
2023-12-17T05:37:41.546Z,1.01
2023-12-17T05:40:26.800Z,0.97
2023-12-17T05:43:11.723Z,0.81
2023-12-17T05:45:59.084Z,1.04
2023-12-17T05:48:44.323Z,1.03
2023-12-17T05:51:29.109Z,0.99
2023-12-17T05:54:14.213Z,1.03
2023-12-17T05:56:59.134Z,1.17
2023-12-17T05:59:44.177Z,1.17
2023-12-17T06:02:29.125Z,1.19
2023-12-17T06:05:14.089Z,1.06
2023-12-17T06:07:58.964Z,1.01
2023-12-17T06:10:44.026Z,1.05
2023-12-17T06:13:29.034Z,1.09
2023-12-17T06:16:14.067Z,0.96
2023-12-17T06:18:59.118Z,1.08
2023-12-17T06:21:43.972Z,1.01
2023-12-17T06:24:29.061Z,0.80
2023-12-17T06:27:14.067Z,1.13
2023-12-17T06:29:58.926Z,0.92
2023-12-17T06:32:43.932Z,1.07
2023-12-17T06:35:28.764Z,0.92
2023-12-17T06:38:13.933Z,1.32
2023-12-17T06:40:58.997Z,0.91
2023-12-17T06:43:44.005Z,1.03
2023-12-17T06:46:28.881Z,1.20
2023-12-17T06:49:14.274Z,1.46
2023-12-17T06:51:59.301Z,1.45
2023-12-17T06:54:44.367Z,1.00
2023-12-17T06:57:29.441Z,1.17
2023-12-17T07:00:14.373Z,1.31
2023-12-17T07:02:59.543Z,1.12
2023-12-17T07:05:44.505Z,1.10
2023-12-17T07:08:29.357Z,1.19
2023-12-17T07:11:14.292Z,1.20
2023-12-17T07:13:59.279Z,1.30
2023-12-17T07:16:44.145Z,1.20
2023-12-17T07:19:29.203Z,1.05
2023-12-17T07:22:14.203Z,1.13
2023-12-17T07:24:59.137Z,1.10
2023-12-17T07:27:44.143Z,1.41
2023-12-17T07:30:29.079Z,1.21
2023-12-17T07:33:14.139Z,1.21
2023-12-17T07:35:58.826Z,1.34
2023-12-17T07:38:43.970Z,1.12
2023-12-17T07:41:28.840Z,1.34
2023-12-17T07:44:13.993Z,1.26
2023-12-17T07:46:59.077Z,1.53
2023-12-17T07:49:44.029Z,1.41
2023-12-17T07:52:29.119Z,1.50
2023-12-17T07:55:13.960Z,1.48
2023-12-17T07:57:58.991Z,1.41
2023-12-17T08:00:44.061Z,1.54
2023-12-17T08:03:29.205Z,1.65
2023-12-17T08:06:14.141Z,1.74
2023-12-17T08:08:58.974Z,1.98
2023-12-17T08:11:44.013Z,2.18
2023-12-17T08:14:28.872Z,2.39
2023-12-17T08:17:13.954Z,2.49
2023-12-17T08:19:58.786Z,2.69
2023-12-17T08:22:43.702Z,2.82
2023-12-17T08:25:28.545Z,2.91
2023-12-17T08:28:13.635Z,3.15
2023-12-17T08:30:58.708Z,3.22
2023-12-17T08:33:43.661Z,3.21
2023-12-17T08:36:28.706Z,3.48
2023-12-17T08:39:13.474Z,3.77
2023-12-17T08:41:58.482Z,3.91
2023-12-17T08:44:43.397Z,4.15
2023-12-17T08:47:28.557Z,4.24
2023-12-17T08:50:13.296Z,4.40
2023-12-17T08:52:58.251Z,4.54
2023-12-17T08:55:43.273Z,4.65
2023-12-17T08:58:28.159Z,4.69
2023-12-17T09:01:13.256Z,4.77
2023-12-17T09:03:58.356Z,4.85
2023-12-17T09:06:43.172Z,4.77
2023-12-17T09:09:28.242Z,4.91
2023-12-17T09:12:13.262Z,4.98
2023-12-17T09:14:58.169Z,4.82
2023-12-17T09:17:43.493Z,5.07
2023-12-17T09:20:28.669Z,5.22
2023-12-17T09:23:13.662Z,5.22
2023-12-17T09:25:58.818Z,5.35
2023-12-17T09:28:43.767Z,5.39
2023-12-17T09:31:28.756Z,5.50
2023-12-17T09:34:13.671Z,5.54
2023-12-17T09:36:58.603Z,5.64
2023-12-17T09:39:43.483Z,5.49
2023-12-17T09:42:28.572Z,5.63
2023-12-17T09:45:13.629Z,5.69
2023-12-17T09:47:58.683Z,5.74
2023-12-17T09:50:43.633Z,5.75
2023-12-17T09:53:28.443Z,5.91
2023-12-17T09:56:13.570Z,5.87
2023-12-17T09:58:58.463Z,5.88
2023-12-17T10:01:43.601Z,6.06
2023-12-17T10:04:28.702Z,6.11
2023-12-17T10:07:13.605Z,6.16
2023-12-17T10:09:58.460Z,6.17
2023-12-17T10:12:43.881Z,6.25
2023-12-17T10:15:29.412Z,6.33
2023-12-17T10:18:14.230Z,6.39
2023-12-17T10:20:59.226Z,6.49
2023-12-17T10:23:44.289Z,6.63
2023-12-17T10:26:29.215Z,6.63
2023-12-17T10:29:14.114Z,6.62
2023-12-17T10:31:59.032Z,6.70
2023-12-17T10:34:44.273Z,6.62
2023-12-17T10:37:29.031Z,6.66
2023-12-17T10:40:14.106Z,6.74
2023-12-17T10:42:59.053Z,6.84
2023-12-17T10:45:44.058Z,6.91
2023-12-17T10:48:29.157Z,6.99
2023-12-17T10:51:14.061Z,7.10
2023-12-17T10:53:59.034Z,7.13
2023-12-17T10:56:43.919Z,7.16
2023-12-17T10:59:35.362Z,6.95
2023-12-17T11:02:25.449Z,7.25
2023-12-17T11:05:10.426Z,7.31
2023-12-17T11:07:55.280Z,7.49
2023-12-17T11:10:40.287Z,7.56
2023-12-17T11:13:25.435Z,7.52
2023-12-17T11:16:10.145Z,7.55
2023-12-17T11:18:55.134Z,7.48
2023-12-17T11:21:40.093Z,7.61
2023-12-17T11:24:25.016Z,7.83
2023-12-17T11:27:10.082Z,7.79
2023-12-17T11:29:55.049Z,7.66
2023-12-17T11:32:39.954Z,7.10
2023-12-17T11:35:25.111Z,7.44
2023-12-17T11:38:09.886Z,7.59
2023-12-17T11:40:54.859Z,7.78
2023-12-17T11:43:39.965Z,7.83
2023-12-17T11:46:24.993Z,7.79
2023-12-17T11:49:10.046Z,7.83
2023-12-17T11:51:55.097Z,7.81
2023-12-17T11:54:40.238Z,7.81
2023-12-17T11:57:25.153Z,7.98
2023-12-17T12:00:10.214Z,8.11
2023-12-17T12:02:55.352Z,8.18
2023-12-17T12:05:40.395Z,8.20
2023-12-17T12:08:25.431Z,8.16
2023-12-17T12:11:12.587Z,8.16
2023-12-17T12:13:58.052Z,8.19
2023-12-17T12:16:43.149Z,8.18
2023-12-17T12:19:32.114Z,8.08
2023-12-17T12:22:17.814Z,8.02
2023-12-17T12:25:02.738Z,8.04
2023-12-17T12:27:47.726Z,8.15
2023-12-17T12:30:32.731Z,8.18
2023-12-17T12:33:17.619Z,8.02
2023-12-17T12:36:02.853Z,8.07
2023-12-17T12:38:47.669Z,7.82
2023-12-17T12:41:32.733Z,7.64
2023-12-17T12:44:17.725Z,7.66
2023-12-17T12:47:02.752Z,7.68
2023-12-17T12:49:47.797Z,7.49
2023-12-17T12:52:32.761Z,7.02
2023-12-17T12:55:17.859Z,6.50
2023-12-17T12:58:02.870Z,6.82
2023-12-17T13:00:47.977Z,7.03
2023-12-17T13:03:32.849Z,6.90
2023-12-17T13:06:17.708Z,6.86
2023-12-17T13:09:03.158Z,6.84
2023-12-17T13:11:48.119Z,6.62
2023-12-17T13:14:33.145Z,6.36
2023-12-17T13:17:18.272Z,6.37
2023-12-17T13:20:03.530Z,6.34
2023-12-17T13:22:48.456Z,6.13
2023-12-17T13:25:33.517Z,6.30
2023-12-17T13:28:18.498Z,5.93
2023-12-17T13:31:03.638Z,5.93
2023-12-17T13:33:48.509Z,6.15
2023-12-17T13:36:33.636Z,5.76
2023-12-17T13:39:18.591Z,5.65
2023-12-17T13:42:03.673Z,5.80
2023-12-17T13:44:48.477Z,6.08
2023-12-17T13:47:33.427Z,6.18
2023-12-17T13:50:18.523Z,6.34
2023-12-17T13:53:04.555Z,5.97
2023-12-17T13:55:49.531Z,5.87
2023-12-17T13:58:34.672Z,5.34
2023-12-17T14:01:19.590Z,5.68
2023-12-17T14:04:04.735Z,5.73
2023-12-17T14:06:49.575Z,5.53
2023-12-17T14:09:34.638Z,5.51
2023-12-17T14:12:20.674Z,5.56
2023-12-17T14:15:05.503Z,5.86
2023-12-17T14:17:50.385Z,5.61
2023-12-17T14:20:35.368Z,5.65
2023-12-17T14:23:20.319Z,5.75
2023-12-17T14:26:05.202Z,5.82
2023-12-17T14:28:50.316Z,5.82
2023-12-17T14:31:35.219Z,5.61
2023-12-17T14:34:20.481Z,5.55
2023-12-17T14:37:05.173Z,5.63
2023-12-17T14:39:50.150Z,5.58
2023-12-17T14:42:35.268Z,5.28
2023-12-17T14:45:20.163Z,5.30
2023-12-17T14:48:05.458Z,5.32
2023-12-17T14:50:50.288Z,5.39
2023-12-17T14:53:37.912Z,5.06
2023-12-17T14:56:24.189Z,5.07
2023-12-17T14:59:09.094Z,4.93
2023-12-17T15:01:54.182Z,5.14
2023-12-17T15:04:38.955Z,4.86
2023-12-17T15:07:24.039Z,4.89
2023-12-17T15:10:08.965Z,4.62
2023-12-17T15:12:53.978Z,4.40
2023-12-17T15:15:39.057Z,4.53
2023-12-17T15:18:24.284Z,4.60
2023-12-17T15:21:09.322Z,4.71
2023-12-17T15:23:54.144Z,4.46
2023-12-17T15:26:39.249Z,4.95
2023-12-17T15:29:24.270Z,4.75
2023-12-17T15:32:09.243Z,4.37
2023-12-17T15:34:54.277Z,4.31
2023-12-17T15:37:39.245Z,4.36
2023-12-17T15:40:24.353Z,4.29
2023-12-17T15:43:09.356Z,4.29
2023-12-17T15:45:54.459Z,4.24
2023-12-17T15:48:39.430Z,4.37
2023-12-17T15:51:26.217Z,4.53
2023-12-17T15:54:12.406Z,4.56
2023-12-17T15:56:57.315Z,4.21
2023-12-17T15:59:42.325Z,4.17
2023-12-17T16:02:27.284Z,4.09
2023-12-17T16:05:12.116Z,3.86
2023-12-17T16:07:57.053Z,4.20
2023-12-17T16:10:42.034Z,4.14
2023-12-17T16:13:27.061Z,4.07
2023-12-17T16:16:12.027Z,3.73
2023-12-17T16:18:57.156Z,3.56
2023-12-17T16:21:41.986Z,3.38
2023-12-17T16:24:27.010Z,3.58
2023-12-17T16:27:11.936Z,3.77
2023-12-17T16:29:56.857Z,3.70
2023-12-17T16:32:41.997Z,3.41
2023-12-17T16:35:26.795Z,3.56
2023-12-17T16:38:11.819Z,3.56
2023-12-17T16:40:56.748Z,3.54
2023-12-17T16:43:41.823Z,3.73
2023-12-17T16:46:26.828Z,3.45
2023-12-17T16:49:11.921Z,3.64
2023-12-17T16:51:56.702Z,3.67
2023-12-17T16:54:41.679Z,3.92
2023-12-17T16:57:26.712Z,3.75
2023-12-17T17:00:11.629Z,3.41
2023-12-17T17:02:56.718Z,3.37
2023-12-17T17:05:41.759Z,3.43
2023-12-17T17:08:26.768Z,3.42
2023-12-17T17:11:13.615Z,3.47
2023-12-17T17:13:59.109Z,3.44
2023-12-17T17:16:44.013Z,3.49
2023-12-17T17:19:29.145Z,3.37
2023-12-17T17:22:14.021Z,3.55
2023-12-17T17:24:58.866Z,3.67
2023-12-17T17:27:43.931Z,3.47
2023-12-17T17:30:28.878Z,3.47
2023-12-17T17:33:13.806Z,3.70
2023-12-17T17:35:58.676Z,3.58
2023-12-17T17:38:43.644Z,3.77
2023-12-17T17:41:28.697Z,3.55
2023-12-17T17:44:13.589Z,3.58
2023-12-17T17:46:58.678Z,3.69
2023-12-17T17:49:43.677Z,3.44
2023-12-17T17:52:28.525Z,3.68
2023-12-17T17:55:13.316Z,3.52
2023-12-17T17:57:58.344Z,3.64
2023-12-17T18:00:43.445Z,3.43
2023-12-17T18:03:28.287Z,3.48
2023-12-17T18:06:13.254Z,3.50
2023-12-17T18:08:58.152Z,3.64
2023-12-17T18:11:43.128Z,3.69
2023-12-17T18:14:28.031Z,3.51
2023-12-17T18:17:13.081Z,3.41
2023-12-17T18:19:57.869Z,3.34
2023-12-17T18:22:43.212Z,3.12
2023-12-17T18:25:27.995Z,3.00
2023-12-17T18:28:14.391Z,3.25
2023-12-17T18:30:59.261Z,3.17
2023-12-17T18:33:44.309Z,3.41
2023-12-17T18:36:29.205Z,3.43
2023-12-17T18:39:14.327Z,3.43
2023-12-17T18:41:59.311Z,3.16
2023-12-17T18:44:44.181Z,3.27
2023-12-17T18:47:29.012Z,3.30
2023-12-17T18:50:14.032Z,3.17
2023-12-17T18:52:58.931Z,3.28
2023-12-17T18:55:43.970Z,3.40
2023-12-17T18:58:28.861Z,3.66
2023-12-17T19:01:13.869Z,3.81
2023-12-17T19:03:59.026Z,3.53
2023-12-17T19:06:43.950Z,3.64
2023-12-17T19:09:28.997Z,3.56
2023-12-17T19:12:13.988Z,3.55
2023-12-17T19:14:58.981Z,3.38
2023-12-17T19:17:43.914Z,3.46
2023-12-17T19:20:28.864Z,3.24
2023-12-17T19:23:13.795Z,3.07
2023-12-17T19:25:58.891Z,3.38
2023-12-17T19:28:43.883Z,3.49
2023-12-17T19:31:28.859Z,3.39
2023-12-17T19:34:13.888Z,3.56
2023-12-17T19:36:58.743Z,3.22
2023-12-17T19:39:43.824Z,3.34
2023-12-17T19:42:28.942Z,3.38
2023-12-17T19:45:14.027Z,3.37
2023-12-17T19:47:59.201Z,3.42
2023-12-17T19:50:43.941Z,3.29
2023-12-17T19:53:28.975Z,2.93
2023-12-17T19:56:14.009Z,3.14
2023-12-17T19:58:59.155Z,3.10
2023-12-17T20:01:44.239Z,3.12
2023-12-17T20:04:29.342Z,3.09
2023-12-17T20:07:14.431Z,3.01
2023-12-17T20:09:59.476Z,3.15
2023-12-17T20:12:44.899Z,3.29
2023-12-17T20:15:29.526Z,3.29
2023-12-17T20:18:14.606Z,3.27
2023-12-17T20:20:59.564Z,3.26
2023-12-17T20:23:44.677Z,3.40
2023-12-17T20:26:29.535Z,3.43
2023-12-17T20:29:14.457Z,3.25
2023-12-17T20:31:59.413Z,3.09
2023-12-17T20:34:44.432Z,3.10
2023-12-17T20:37:29.415Z,3.16
2023-12-17T20:40:14.353Z,3.27
2023-12-17T20:42:59.545Z,3.08
2023-12-17T20:45:44.395Z,3.00
2023-12-17T20:48:29.430Z,2.91
2023-12-17T20:51:14.357Z,3.13
2023-12-17T20:53:59.415Z,3.08
2023-12-17T20:56:44.249Z,3.07
2023-12-17T20:59:29.319Z,3.31
2023-12-17T21:02:14.320Z,3.14
2023-12-17T21:04:59.329Z,3.12
2023-12-17T21:07:44.400Z,3.06
2023-12-17T21:10:29.281Z,3.04
2023-12-17T21:13:14.337Z,3.01
2023-12-17T21:15:59.148Z,3.06
2023-12-17T21:18:44.329Z,3.15
2023-12-17T21:21:29.207Z,3.34
2023-12-17T21:24:14.124Z,3.00
2023-12-17T21:27:00.317Z,2.97
2023-12-17T21:29:46.585Z,3.04
2023-12-17T21:32:31.564Z,2.94
2023-12-17T21:35:16.549Z,3.11
2023-12-17T21:38:01.550Z,3.12
2023-12-17T21:40:46.541Z,3.08
2023-12-17T21:43:31.460Z,3.01
2023-12-17T21:46:16.555Z,2.98
2023-12-17T21:49:01.975Z,3.03
2023-12-17T21:51:46.888Z,3.00
2023-12-17T21:54:31.855Z,2.98
2023-12-17T21:57:19.105Z,2.88
2023-12-17T22:00:04.460Z,2.98
2023-12-17T22:02:49.186Z,2.88
2023-12-17T22:05:34.255Z,2.84
2023-12-17T22:08:18.992Z,2.89
2023-12-17T22:11:04.074Z,2.81
2023-12-17T22:13:48.894Z,2.77
2023-12-17T22:16:33.900Z,2.91
2023-12-17T22:19:18.999Z,3.06
2023-12-17T22:22:03.784Z,3.21
2023-12-17T22:24:48.793Z,3.19
2023-12-17T22:27:33.797Z,3.23
2023-12-17T22:30:18.997Z,3.02
2023-12-17T22:33:03.719Z,2.95
2023-12-17T22:35:48.691Z,3.17
2023-12-17T22:38:33.719Z,3.17
2023-12-17T22:41:18.688Z,2.88
2023-12-17T22:44:03.754Z,2.98
2023-12-17T22:46:48.686Z,3.09
2023-12-17T22:49:33.970Z,3.01
2023-12-17T22:52:18.837Z,2.90
2023-12-17T22:55:03.888Z,3.01
2023-12-17T22:57:48.786Z,2.98
2023-12-17T23:00:33.818Z,2.87
2023-12-17T23:03:18.784Z,2.92
2023-12-17T23:06:04.264Z,3.13
2023-12-17T23:08:49.503Z,3.02
2023-12-17T23:11:34.423Z,2.84
2023-12-17T23:14:19.630Z,2.98
2023-12-17T23:17:04.638Z,2.94
2023-12-17T23:19:49.650Z,2.94
2023-12-17T23:22:34.599Z,2.87
2023-12-17T23:25:19.546Z,2.80
2023-12-17T23:28:04.615Z,3.32
2023-12-17T23:30:49.579Z,3.07
2023-12-17T23:33:34.568Z,2.98
2023-12-17T23:36:19.287Z,2.86
2023-12-17T23:39:04.334Z,3.01
2023-12-17T23:41:49.179Z,2.88
2023-12-17T23:44:34.142Z,3.01
2023-12-17T23:47:19.046Z,3.11
2023-12-17T23:50:04.048Z,2.86
2023-12-17T23:52:49.133Z,2.76
2023-12-17T23:55:34.064Z,2.67
2023-12-17T23:58:19.177Z,2.74
